Pinnacle, Arkansas
Current Conditions -  °F | °C
As of 12:53 PM on Sunday 21 Dec 2014 (Local Time) from KLIT Reporting Station
Scattered Clouds Scattered Clouds  
Wind Chill: 53°   Ceiling: Unl
Heat Index: 53°   Visibility: 10mi
Dew Point: 34°   Wind: 10mph
Humidity: 48%   Direction: 160°SSE
Pressure: 30.08"   Gusts: NA
Location:  34.8869°N, 92.5324°W
Report Text: KLIT 211853Z 16009KT 10SM FEW080 SCT250 12/01 A3008 RMK AO2 SLP189 T01170011
Loading
Personal Weather Stations






























Interactive Weather Map New forecast layout! Learn more

10-Day Weather Forecast

Advertisements
Track Severe Weather on mobile